createdAt,value
2023-07-14T00:00:40.695Z,87.60
2023-07-14T00:05:41.777Z,88.95
2023-07-14T00:10:42.824Z,88.65
2023-07-14T00:15:43.972Z,89.39
2023-07-14T00:20:45.188Z,88.79
2023-07-14T00:25:46.343Z,89.29
2023-07-14T00:30:49.407Z,89.39
2023-07-14T00:35:50.430Z,89.79
2023-07-14T00:40:52.792Z,90.00
2023-07-14T00:45:51.590Z,88.79
2023-07-14T00:50:52.598Z,88.08
2023-07-14T00:55:51.745Z,88.99
2023-07-14T01:00:52.777Z,90.49
2023-07-14T01:06:12.844Z,91.19
2023-07-14T01:10:53.900Z,90.99
2023-07-14T01:15:54.957Z,89.94
2023-07-14T01:20:55.960Z,89.09
2023-07-14T01:25:57.131Z,88.59
2023-07-14T01:30:58.189Z,88.08
2023-07-14T01:36:00.225Z,87.68
2023-07-14T01:41:00.259Z,87.07
2023-07-14T01:46:00.354Z,87.48
2023-07-14T01:50:59.381Z,87.72
2023-07-14T01:56:00.425Z,88.02
2023-07-14T02:01:01.563Z,88.26
2023-07-14T02:06:03.623Z,88.57
2023-07-14T02:11:02.654Z,88.67
2023-07-14T02:16:48.746Z,88.57
2023-07-14T02:21:03.755Z,87.76
2023-07-14T02:26:04.785Z,87.66
2023-07-14T02:31:05.911Z,86.71
2023-07-14T02:36:07.996Z,87.01
2023-07-14T02:41:07.051Z,87.05
2023-07-14T02:46:08.200Z,86.51
2023-07-14T02:51:09.278Z,86.51
2023-07-14T02:56:11.313Z,87.12
2023-07-14T03:01:11.646Z,86.21
2023-07-14T03:06:10.837Z,86.21
2023-07-14T03:11:13.236Z,86.85
2023-07-14T03:16:12.511Z,86.99
2023-07-14T03:21:13.973Z,88.10
2023-07-14T03:26:13.291Z,89.76
2023-07-14T03:31:15.678Z,92.88
2023-07-14T03:36:15.756Z,93.43
2023-07-14T03:41:16.346Z,94.35
2023-07-14T03:46:16.983Z,95.50
2023-07-14T03:51:17.126Z,95.40
2023-07-14T03:56:17.525Z,95.25
2023-07-14T04:01:16.875Z,95.00
2023-07-14T04:06:17.873Z,95.20
2023-07-14T04:11:18.961Z,94.19
2023-07-14T04:16:21.047Z,94.35
2023-07-14T04:21:21.040Z,90.89
2023-07-14T04:26:21.124Z,86.22
2023-07-14T04:31:20.187Z,85.98
2023-07-14T04:36:21.256Z,85.28
2023-07-14T04:41:22.273Z,88.32
2023-07-14T04:46:23.359Z,91.18
2023-07-14T04:51:25.395Z,94.91
2023-07-14T04:56:24.455Z,95.01
2023-07-14T05:01:25.651Z,94.06
2023-07-14T05:06:26.731Z,93.00
2023-07-14T05:11:28.816Z,92.55
2023-07-14T05:16:27.922Z,92.21
2023-07-14T05:21:28.948Z,91.54
2023-07-14T05:26:30.010Z,91.50
2023-07-14T05:31:31.135Z,90.85
2023-07-14T05:36:34.149Z,87.98
2023-07-14T05:41:33.183Z,88.70
2023-07-14T05:46:34.248Z,87.05
2023-07-14T05:51:35.406Z,84.94
2023-07-14T05:56:38.431Z,83.54
2023-07-14T06:01:37.625Z,79.71
2023-07-14T06:06:38.697Z,78.56
2023-07-14T06:11:40.704Z,76.38
2023-07-14T06:16:39.769Z,76.45
2023-07-14T06:21:40.779Z,74.51
2023-07-14T06:26:42.817Z,75.07
2023-07-14T06:31:41.879Z,75.74
2023-07-14T06:36:44.096Z,73.53
2023-07-14T06:41:43.113Z,74.63
2023-07-14T06:46:44.214Z,72.69
2023-07-14T06:51:46.343Z,68.93
2023-07-14T06:56:46.387Z,67.93
2023-07-14T07:01:45.446Z,68.16
2023-07-14T07:06:46.440Z,69.13
2023-07-14T07:11:48.497Z,67.26
2023-07-14T07:16:48.537Z,66.53
2023-07-14T07:21:48.567Z,66.09
2023-07-14T07:26:48.608Z,68.56
2023-07-14T07:31:47.794Z,68.99
2023-07-14T07:36:49.075Z,66.80
2023-07-14T07:41:50.094Z,65.56
2023-07-14T07:46:51.180Z,66.27
2023-07-14T07:51:52.380Z,65.87
2023-07-14T07:56:54.457Z,64.78
2023-07-14T08:01:53.578Z,59.58
2023-07-14T08:06:54.611Z,62.40
2023-07-14T08:11:56.656Z,61.57
2023-07-14T08:16:55.750Z,59.48
2023-07-14T08:21:56.748Z,61.23
2023-07-14T08:26:57.765Z,60.21
2023-07-14T08:31:58.871Z,59.42
2023-07-14T08:36:59.919Z,58.25
2023-07-14T08:42:01.965Z,59.86
2023-07-14T08:47:02.023Z,59.41
2023-07-14T08:52:04.058Z,63.39
2023-07-14T08:57:01.132Z,64.81
2023-07-14T09:02:02.154Z,64.88
2023-07-14T09:07:03.196Z,64.03
2023-07-14T09:12:05.234Z,63.26
2023-07-14T09:17:05.560Z,60.84
2023-07-14T09:22:04.611Z,62.23
2023-07-14T09:27:05.657Z,62.56
2023-07-14T09:32:06.600Z,62.15
2023-07-14T09:37:06.646Z,60.43
2023-07-14T09:42:06.778Z,60.66
2023-07-14T09:47:05.805Z,61.71
2023-07-14T09:52:07.865Z,58.84
2023-07-14T09:57:07.898Z,54.47
2023-07-14T10:02:08.957Z,58.12
2023-07-14T10:07:07.998Z,62.90
2023-07-14T10:12:09.082Z,59.17
2023-07-14T10:17:11.311Z,59.49
2023-07-14T10:22:10.467Z,61.05
2023-07-14T10:27:11.469Z,60.93
2023-07-14T10:32:14.524Z,62.08
2023-07-14T10:37:14.039Z,60.43
2023-07-14T10:42:13.155Z,62.47
2023-07-14T10:47:14.865Z,60.47
2023-07-14T10:52:16.888Z,61.07
2023-07-14T10:57:16.930Z,60.31
2023-07-14T11:02:16.238Z,60.34
2023-07-14T11:07:18.268Z,61.46
2023-07-14T11:12:17.334Z,63.68
2023-07-14T11:17:18.400Z,60.21
2023-07-14T11:22:21.942Z,59.89
2023-07-14T11:27:19.678Z,60.45
2023-07-14T11:32:20.776Z,58.37
2023-07-14T11:37:21.849Z,59.53
2023-07-14T11:42:23.914Z,59.06
2023-07-14T11:47:22.974Z,60.17
2023-07-14T11:52:24.004Z,58.77
2023-07-14T11:57:25.091Z,59.11
2023-07-14T12:02:26.248Z,58.65
2023-07-14T12:07:27.382Z,58.29
2023-07-14T12:12:29.435Z,58.22
2023-07-14T12:17:28.520Z,59.80
2023-07-14T12:22:30.576Z,56.91
2023-07-14T12:27:29.635Z,56.63
2023-07-14T12:32:31.702Z,56.95
2023-07-14T12:37:30.920Z,54.97
2023-07-14T12:42:33.087Z,57.70
2023-07-14T12:47:32.086Z,55.72
2023-07-14T12:52:42.124Z,56.68
2023-07-14T12:57:34.341Z,58.73
2023-07-14T13:02:35.565Z,56.46
2023-07-14T13:07:36.598Z,55.66
2023-07-14T13:12:36.689Z,55.58
2023-07-14T13:17:40.793Z,55.02
2023-07-14T13:22:37.071Z,54.03
2023-07-14T13:27:37.158Z,56.21
2023-07-14T13:32:36.317Z,54.30
2023-07-14T13:37:37.460Z,56.67
2023-07-14T13:42:38.510Z,53.61
2023-07-14T13:47:39.574Z,53.64
2023-07-14T13:52:40.604Z,55.15
2023-07-14T13:57:44.910Z,55.91
2023-07-14T14:02:41.572Z,55.58
2023-07-14T14:07:43.606Z,54.03
2023-07-14T14:12:44.662Z,54.75
2023-07-14T14:17:44.706Z,55.62
2023-07-14T14:22:44.814Z,55.41
2023-07-14T14:27:44.808Z,56.30
2023-07-14T19:57:03.261Z,73.54
2023-07-14T20:02:03.508Z,73.94
2023-07-14T20:07:04.728Z,75.63
2023-07-14T20:12:05.133Z,75.83
2023-07-14T20:17:06.300Z,77.46
2023-07-14T20:22:05.482Z,77.59
2023-07-14T20:27:07.973Z,77.59
2023-07-14T20:32:07.226Z,76.93
2023-07-14T20:37:10.590Z,77.33
2023-07-14T20:42:10.558Z,78.33
2023-07-14T20:47:09.744Z,79.80
2023-07-14T20:52:12.783Z,82.17
2023-07-14T20:57:13.969Z,83.01
2023-07-14T21:02:12.028Z,82.91
2023-07-14T21:07:13.062Z,83.41
2023-07-14T21:12:14.096Z,83.11
2023-07-14T21:17:15.273Z,83.85
2023-07-14T21:22:16.346Z,84.99
2023-07-14T21:27:19.380Z,84.99
2023-07-14T21:32:17.438Z,84.69
2023-07-14T21:37:20.513Z,85.29
2023-07-14T21:42:19.543Z,85.49
2023-07-14T21:47:21.706Z,85.83
2023-07-14T21:52:20.909Z,86.13
2023-07-14T21:57:23.188Z,86.13
2023-07-14T22:02:22.306Z,87.48
2023-07-14T22:07:23.284Z,87.57
2023-07-14T22:12:24.349Z,87.48
2023-07-14T22:17:25.430Z,87.98
2023-07-14T22:22:26.507Z,84.47
2023-07-14T22:27:27.549Z,83.73
2023-07-14T22:32:28.610Z,79.35
2023-07-14T22:37:29.612Z,75.25
2023-07-14T22:42:31.642Z,74.02
2023-07-14T22:47:31.732Z,73.38
2023-07-14T22:52:30.736Z,71.05
2023-07-14T22:57:32.784Z,70.82
2023-07-14T23:02:32.842Z,70.09
2023-07-14T23:07:31.879Z,69.89
2023-07-14T23:12:32.909Z,69.69
2023-07-14T23:17:35.079Z,69.76
2023-07-14T23:22:35.160Z,69.79
2023-07-14T23:27:34.280Z,69.49
2023-07-14T23:32:35.359Z,69.69
2023-07-14T23:37:36.389Z,69.29
2023-07-14T23:42:38.456Z,69.49
2023-07-14T23:47:39.560Z,68.56
2023-07-14T23:52:37.673Z,68.86
2023-07-14T23:57:38.700Z,69.06
